• Join FlightAware (Why Join?)
  • Login
  • US Flag 
05:54PM EDT


 

Airport Tracker/Info


-or-


 

Live Flight TrackerFlight Track Log ✈ ASA124 ✈ 27-Oct-2013 ✈ PAFA / FAI - KSEA

Flight Track Log - Related Links

Times and Time Zones

All times are in EDT time to prevent confusion due to time zone crossing. See the ASA124 flight status page for this flight to view local times or setup timezone preferences in your user account.

Time Position Orientation Groundspeed Altitude Reporting Facility
EDT Latitude Longitude Course Direction KTS MPH feet Rate Location/Type
09:36PM 64.7667 -147.7167 120° Southeast 240 276 3,700  Level Anchorage Center
09:37PM 64.7167 -147.6333 145° Southeast 260 299 6,700 2,940 Climbing Anchorage Center
09:38PM 64.6500 -147.5000 139° Southeast 280 322 9,600 2,280 Climbing Anchorage Center
09:39PM 64.6167 -147.3333 115° Southeast 320 368 11,300 2,280 Climbing Anchorage Center
09:40PM 64.5500 -147.1333 128° Southeast 350 403 14,200 2,460 Climbing Anchorage Center
09:41PM 64.3330 -146.5137 125° Southeast  Level Estimated
09:41PM 64.5000 -146.9333 120° Southeast 390 449 16,300  Level Anchorage Center
09:42PM 64.2699 -146.2642 120° Southeast  Level FlightAware Approximate
09:42PM 64.4333 -146.7167 125° Southeast 410 472 19,100  Level Anchorage Center
09:43PM 64.3667 -146.4667 122° Southeast 420 483 21,800 2,340 Climbing Anchorage Center
09:44PM 64.3167 -146.2500 118° Southeast 440 506 23,800 1,860 Climbing Anchorage Center
09:45PM 64.2333 -145.9833 126° Southeast 450 518 25,600 1,800 Climbing Anchorage Center
09:46PM 64.1667 -145.7500 123° Southeast 470 541 27,400 1,980 Climbing Anchorage Center
09:47PM 64.0833 -145.4833 125° Southeast 470 541 29,600 2,040 Climbing Anchorage Center
09:48PM 64.0167 -145.2333 121° Southeast 470 541 31,500 1,620 Climbing Anchorage Center
09:49PM 63.9500 -145.0000 123° Southeast 480 552 32,900 1,320 Climbing Anchorage Center
09:50PM 63.8667 -144.7667 129° Southeast 490 564 34,200 1,320 Climbing Anchorage Center
09:51PM 63.8000 -144.5167 121° Southeast 500 575 35,600 1,320 Climbing Anchorage Center
09:52PM 63.7167 -144.2667 127° Southeast 500 575 36,900 1,380 Climbing Anchorage Center
09:53PM 63.6333 -144.0167 127° Southeast 500 575 38,400 1,020 Climbing Anchorage Center
09:54PM 63.5500 -143.7500 125° Southeast 500 575 39,000 300 Climbing Anchorage Center
09:55PM 63.4833 -143.5167 123° Southeast 490 564 39,000  Level Anchorage Center
09:56PM 63.4000 -143.2667 127° Southeast 500 575 39,000  Level Anchorage Center
09:57PM 63.3167 -143.0167 127° Southeast 490 564 39,000  Level Anchorage Center
09:58PM 63.2333 -142.7667 126° Southeast 500 575 39,000  Level Anchorage Center
10:00PM 63.0667 -142.2667 126° Southeast 500 575 39,000  Level Anchorage Center
10:01PM 62.9833 -142.0167 126° Southeast 510 587 39,000  Level Anchorage Center
10:02PM 62.8833 -141.7833 133° Southeast 510 587 39,000  Level Anchorage Center
10:03PM 62.7833 -141.6000 140° Southeast 490 564 39,000  Level Anchorage Center
10:04PM 62.6833 -141.4000 137° Southeast 500 575 39,000  Level Anchorage Center
10:05PM 62.5500 -141.1667 141° Southeast 490 564 39,000  Level Anchorage Center
10:06PM 62.4667 -141.0167 140° Southeast 490 564 39,000  Level Anchorage Center
10:07PM 62.3667 -140.8167 137° Southeast 480 552 39,000  Level Anchorage Center
10:08PM 62.2667 -140.6167 137° Southeast 490 564 39,000  Level Anchorage Center
10:09PM 62.1167 -140.3667 142° Southeast 480 552 39,000  Level Anchorage Center
10:11PM 62.0095 -140.1693 139° Southeast  Level FlightAware Approximate
10:13PM 61.8000 -139.7667 148° Southeast 460 529 39,000  Level Anchorage Center
10:15PM 61.5333 -139.3333 142° Southeast 470 541 39,000  Level Anchorage Center
10:16PM 61.4333 -139.1500 139° Southeast 480 552 39,000  Level Anchorage Center
10:17PM 61.3333 -138.9667 139° Southeast 490 564 39,000  Level Anchorage Center
10:18PM 61.3197 -138.9489 148° Southeast  Level FlightAware Approximate
10:18PM 61.2167 -138.8167 148° Southeast 480 552 39,000  Level Anchorage Center
10:19PM 61.1000 -138.6833 151° Southeast 480 552 39,000  Level Anchorage Center
10:20PM 60.9833 -138.5333 148° Southeast 480 552 39,000  Level Anchorage Center
10:21PM 60.8667 -138.3833 148° Southeast 480 552 39,000  Level Anchorage Center
10:22PM 60.7667 -138.2500 147° Southeast 480 552 39,000  Level Anchorage Center
10:23PM 60.6500 -138.1000 148° Southeast 480 552 39,000  Level Anchorage Center
10:24PM 60.5333 -137.9500 148° Southeast 480 552 39,000  Level Anchorage Center
10:25PM 60.4167 -137.8167 151° Southeast 480 552 39,000  Level Anchorage Center
10:26PM 60.3000 -137.6667 147° Southeast 480 552 39,000  Level Anchorage Center
10:27PM 60.1833 -137.5333 150° Southeast 480 552 39,000  Level Anchorage Center
10:28PM 60.0667 -137.4000 150° Southeast 470 541 39,000  Level Anchorage Center
10:29PM 59.9833 -137.2833 145° Southeast 480 552 39,000  Level Anchorage Center
10:30PM 59.8667 -137.1500 150° Southeast 490 564 39,000  Level Anchorage Center
10:31PM 59.7500 -137.0000 147° Southeast 480 552 39,000  Level Anchorage Center
10:32PM 59.6333 -136.8667 150° Southeast 490 564 39,000  Level Anchorage Center
10:33PM 59.5000 -136.7333 153° Southeast 500 575 39,000  Level Anchorage Center
10:34PM 59.3833 -136.5833 147° Southeast 500 575 39,000  Level Anchorage Center
10:35PM 59.2667 -136.4500 150° Southeast 500 575 39,000  Level Anchorage Center
10:36PM 59.1500 -136.3167 150° Southeast 500 575 39,000  Level Anchorage Center
10:37PM 59.0333 -136.1833 150° Southeast 500 575 39,000  Level Anchorage Center
10:38PM 58.9000 -136.0500 153° Southeast 500 575 39,000  Level Anchorage Center
10:39PM 58.7667 -135.9000 150° Southeast 500 575 39,000  Level Anchorage Center
10:40PM 58.6500 -135.7667 149° Southeast 500 575 39,000  Level Anchorage Center
10:41PM 58.5333 -135.6333 149° Southeast 500 575 39,000  Level Anchorage Center
10:42PM 58.4000 -135.5000 152° Southeast 500 575 39,000  Level Anchorage Center
10:43PM 58.2833 -135.3667 149° Southeast 500 575 39,000  Level Anchorage Center
10:44PM 58.1667 -135.2333 149° Southeast 500 575 39,000  Level Anchorage Center
10:45PM 58.0833 -135.0833 136° Southeast 500 575 39,000  Level Anchorage Center
10:46PM 57.9667 -134.9167 143° Southeast 520 598 39,000  Level Anchorage Center
10:47PM 57.8667 -134.7333 136° Southeast 510 587 39,000  Level Anchorage Center
10:48PM 57.7500 -134.5500 140° Southeast 510 587 39,000  Level Anchorage Center
10:49PM 57.6500 -134.3833 138° Southeast 510 587 39,000  Level Anchorage Center
10:50PM 57.5333 -134.2000 140° Southeast 520 598 39,000  Level Anchorage Center
10:51PM 57.4167 -134.0333 142° Southeast 520 598 39,000  Level Anchorage Center
10:52PM 57.3167 -133.8500 135° Southeast 510 587 39,000  Level Anchorage Center
10:53PM 57.2000 -133.6833 142° Southeast 520 598 39,000  Level Anchorage Center
10:54PM 57.1000 -133.5167 138° Southeast 510 587 39,000  Level Anchorage Center
10:55PM 56.9833 -133.3500 142° Southeast 520 598 39,000  Level Anchorage Center
10:56PM 56.8833 -133.1833 138° Southeast 520 598 39,000  Level Anchorage Center
10:57PM 56.7667 -133.0000 139° Southeast 520 598 39,000  Level Anchorage Center
10:58PM 56.6500 -132.8333 142° Southeast 530 610 39,000  Level Anchorage Center
10:59PM 56.5333 -132.6667 142° Southeast 520 598 39,000  Level Anchorage Center
11:00PM 56.4333 -132.5000 137° Southeast 530 610 39,000  Level Anchorage Center
11:01PM 56.3167 -132.3333 142° Southeast 520 598 39,000  Level Anchorage Center
11:02PM 56.2000 -132.1667 141° Southeast 530 610 39,000  Level Anchorage Center
11:03PM 56.0833 -132.0000 141° Southeast 520 598 39,000  Level Anchorage Center
11:04PM 55.9833 -131.8333 137° Southeast 520 598 39,000  Level Anchorage Center
11:05PM 55.8667 -131.6833 144° Southeast 520 598 39,000  Level Anchorage Center
11:06PM 55.7500 -131.5167 141° Southeast 530 610 39,000  Level Anchorage Center
11:07PM 55.6333 -131.3500 141° Southeast 520 598 39,000  Level Anchorage Center
11:08PM 55.5000 -131.1833 145° Southeast 520 598 39,000  Level Anchorage Center
11:09PM 55.3833 -131.0333 144° Southeast 520 598 39,000  Level Anchorage Center
11:10PM 55.2833 -130.8833 139° Southeast 520 598 39,000  Level Anchorage Center
11:11PM 55.1667 -130.7167 141° Southeast 520 598 39,000  Level Anchorage Center
11:12PM 55.0500 -130.5667 144° Southeast 520 598 39,000  Level Anchorage Center
11:13PM 54.9333 -130.4000 141° Southeast 520 598 39,000  Level Anchorage Center
11:14PM 54.8833 -130.3500 150° Southeast 520 598 39,000  Level Vancouver Center
11:15PM 54.7667 -130.2167 147° Southeast 530 610 39,000  Level Vancouver Center
11:16PM 54.6333 -130.0500 144° Southeast 520 598 39,000  Level Vancouver Center
11:17PM 54.5333 -129.9167 142° Southeast 510 587 39,000  Level Vancouver Center
11:18PM 54.4167 -129.7667 143° Southeast 520 598 39,000  Level Vancouver Center
11:19PM 54.3000 -129.6000 140° Southeast 530 610 39,000  Level Vancouver Center
11:20PM 54.1833 -129.4667 146° Southeast 530 610 39,000  Level Vancouver Center
11:21PM 54.0500 -129.3167 147° Southeast 530 610 39,000  Level Vancouver Center
11:22PM 53.9500 -129.1667 139° Southeast 530 610 39,000  Level Vancouver Center
11:23PM 53.8167 -129.0000 144° Southeast 530 610 39,000  Level Vancouver Center
11:24PM 53.7000 -128.8667 146° Southeast 540 621 39,000  Level Vancouver Center
11:25PM 53.5833 -128.7167 143° Southeast 530 610 39,000  Level Vancouver Center
11:26PM 53.4667 -128.5667 143° Southeast 540 621 39,000  Level Vancouver Center
11:27PM 53.3333 -128.4167 146° Southeast 530 610 39,000  Level Vancouver Center
11:28PM 53.2333 -128.2833 141° Southeast 520 598 39,000  Level Vancouver Center
11:29PM 53.1000 -128.1333 146° Southeast 540 621 39,000  Level Vancouver Center
11:30PM 52.9833 -128.0167 149° Southeast 520 598 39,000  Level Vancouver Center
11:31PM 52.8667 -127.8667 142° Southeast 520 598 39,000  Level Vancouver Center
11:32PM 52.7500 -127.7167 142° Southeast 520 598 39,000  Level Vancouver Center
11:33PM 52.6333 -127.5667 142° Southeast 520 598 39,000  Level Vancouver Center
11:34PM 52.5000 -127.4500 152° Southeast 520 598 39,000  Level Vancouver Center
11:35PM 52.4000 -127.3000 138° Southeast 520 598 39,000  Level Vancouver Center
11:36PM 52.2833 -127.1833 149° Southeast 520 598 39,000  Level Vancouver Center
11:37PM 52.1667 -127.0333 142° Southeast 520 598 39,000  Level Vancouver Center
11:38PM 52.0333 -126.9000 148° Southeast 520 598 39,000  Level Vancouver Center
11:39PM 51.9167 -126.7833 148° Southeast 530 610 39,000  Level Vancouver Center
11:40PM 51.8000 -126.6333 141° Southeast 530 610 39,000  Level Vancouver Center
11:41PM 51.6833 -126.4833 141° Southeast 530 610 39,000  Level Vancouver Center
11:42PM 51.5667 -126.3833 152° Southeast 520 598 39,000  Level Vancouver Center
11:43PM 51.4333 -126.2333 145° Southeast 520 598 39,000  Level Vancouver Center
11:44PM 51.3167 -126.1167 148° Southeast 520 598 39,000  Level Vancouver Center
11:45PM 51.1833 -125.9833 148° Southeast 520 598 39,000  Level Vancouver Center
11:46PM 51.0667 -125.8500 144° Southeast 520 598 39,000  Level Vancouver Center
11:47PM 50.9667 -125.7333 144° Southeast 510 587 39,000  Level Vancouver Center
11:48PM 50.8500 -125.6000 144° Southeast 510 587 39,000  Level Vancouver Center
11:49PM 50.7167 -125.4833 151° Southeast 510 587 39,000  Level Vancouver Center
11:50PM 50.6000 -125.3500 144° Southeast 510 587 39,000  Level Vancouver Center
11:51PM 50.4833 -125.2500 151° Southeast 510 587 39,000  Level Vancouver Center
11:52PM 50.3667 -125.1000 141° Southeast 510 587 39,000  Level Vancouver Center
11:53PM 50.2500 -125.0000 151° Southeast 510 587 39,000  Level Vancouver Center
11:54PM 50.1167 -124.8667 147° Southeast 510 587 39,000  Level Vancouver Center
11:55PM 50.0000 -124.7667 151° Southeast 510 587 39,000  Level Vancouver Center
11:56PM 49.8833 -124.6333 144° Southeast 510 587 39,000  Level Vancouver Center
11:57PM 49.7667 -124.5167 147° Southeast 510 587 39,000  Level Vancouver Center
11:58PM 49.6500 -124.4000 147° Southeast 510 587 39,000  Level Vancouver Center
11:59PM 49.5333 -124.2667 143° Southeast 510 587 39,000  Level Vancouver Center
12:00AM 49.4167 -124.1667 151° Southeast 510 587 39,000  Level Vancouver Center
12:01AM 49.2833 -124.0333 147° Southeast 510 587 39,000 -540 Level Vancouver Center
12:02AM 49.1667 -123.9333 151° Southeast 510 587 38,000 -960 Descending Vancouver Center
12:03AM 49.0500 -123.8000 143° Southeast 510 587 37,100 -960 Descending Vancouver Center
12:04AM 48.9333 -123.7000 151° Southeast 510 587 36,100 -1,080 Descending Vancouver Center
12:05AM 48.8000 -123.5667 147° Southeast 510 587 35,000 -2,040 Descending Vancouver Center
12:06AM 48.6833 -123.4667 150° Southeast 520 598 32,100 -2,760 Descending Vancouver Center
12:07AM 48.5667 -123.3500 146° Southeast 520 598 29,500 -2,460 Descending Vancouver Center
12:08AM 48.4500 -123.2500 150° Southeast 500 575 27,200 -2,400 Descending Vancouver Center
12:09AM 48.3419 -123.1242 142° Southeast 487 560 24,500 -2,280 Descending Seattle Center
12:10AM 48.2311 -123.0222 148° Southeast 470 541 22,400 -2,220 Descending Seattle Center
12:10AM 48.1886 -122.9847 150° Southeast 469 540 21,600 -2,100 Descending Seattle Center
12:11AM 48.1217 -122.9231 148° Southeast 463 533 20,300 -2,100 Descending Seattle Center
12:11AM 48.1011 -122.9067 152° Southeast 451 519 19,900 -1,920 Descending Seattle Center
12:12AM 48.0217 -122.8319 148° Southeast 431 496 18,400 -1,800 Descending Seattle Center
12:12AM 48.0064 -122.8194 151° Southeast 394 453 18,100 -1,740 Descending Seattle Center
12:13AM 47.9292 -122.7519 150° Southeast 383 441 16,700 -1,680 Descending Seattle Center
12:13AM 47.9186 -122.7419 148° Southeast 370 426 16,400 -1,620 Descending Seattle Center
12:14AM 47.8461 -122.6767 149° Southeast 353 406 15,100 -1,560 Descending Seattle Center
12:14AM 47.8414 -122.6722 148° Southeast 349 402 15,000 -1,620 Descending Seattle Center
12:15AM 47.7617 -122.6008 149° Southeast 338 389 13,500 -1,620 Descending Seattle Center
12:15AM 47.7589 -122.5989 155° Southeast 325 374 13,400 -1,440 Descending Seattle Center
12:16AM 47.6869 -122.5331 148° Southeast 321 369 12,100 -1,440 Descending Seattle Center
12:16AM 47.6753 -122.5228 149° Southeast 317 365 11,800 -1,500 Descending Seattle Center
12:17AM 47.6133 -122.4686 149° Southeast 311 358 10,600 -1,320 Descending Seattle Center
12:17AM 47.6022 -122.4611 156° South 302 348 10,500 -1,320 Descending Seattle Center
12:18AM 47.5297 -122.4592 179° South 289 333 9,300 -1,320 Descending Seattle Center
12:18AM 47.5303 -122.4581 53° Northeast 279 321 9,300 -1,320 Level Seattle Center
12:19AM 47.4547 -122.4606 181° South 274 315 8,000 -1,380 Descending Seattle Center
12:19AM 47.4558 -122.4628 306° West 263 303 7,900 -1,680 Descending Seattle Center
12:20AM 47.3833 -122.4617 179° South 260 299 6,300 -1,740 Descending Seattle Center
12:20AM 47.3717 -122.4631 185° South 259 298 6,000 -1,500 Descending Seattle Center
12:21AM 47.3114 -122.4489 171° South 265 305 4,800 -1,320 Descending Seattle Center
12:21AM 47.3008 -122.4464 171° South 269 310 4,700 -720 Descending Seattle Center
12:22AM 47.2469 -122.4097 155° Southeast 258 297 4,100 -720 Descending Seattle Center
12:22AM 47.2422 -122.4000 126° Southeast 239 275 4,000 -120 Descending Seattle Center
12:23AM 47.2472 -122.3378 83° East 168 193 4,000  Level Seattle Center
12:23AM 47.2506 -122.3367 13° North 146 168 4,000 -600 Level Seattle Center
12:24AM 47.2833 -122.3089 30° Northeast 150 173 3,400 -720 Descending Seattle Center
12:24AM 47.2928 -122.3103 354° North 145 167 3,200 -1,020 Descending Seattle Center
12:25AM 47.3261 -122.3089 North 154 177 2,400 -1,020 Descending Seattle Center
12:25AM 47.3397 -122.3106 355° North 155 178 2,100 -900 Descending Seattle Center
12:26AM 47.3664 -122.3086 North 146 168 1,500 -720 Descending Seattle Center
12:26AM 47.3772 -122.3094 357° North 139 160 1,400 -600 Descending Seattle Center
12:27AM 47.3997 -122.3086 North 124 143 900 -720 Descending Seattle Center
12:27AM 47.4128 -122.3097 357° North 117 135 700 -600 Descending Seattle Center
12:28AM 47.4356 -122.3083 North 128 147 300 -600 Descending Seattle Center
12:30AM 47.4333 -122.3000 34° Northeast  Level FlightAware Approximate